sensor_id;sensor_type;location;lat;lon;timestamp;pressure;altitude;pressure_sealevel;temperature;humidity
3142;BME280;1581;51.568;6.998;2022-10-26T00:00:52;100805.50;;;12.45;100.00
3142;BME280;1581;51.568;6.998;2022-10-26T00:03:19;100809.59;;;12.48;100.00
3142;BME280;1581;51.568;6.998;2022-10-26T00:05:47;100803.44;;;12.47;100.00
3142;BME280;1581;51.568;6.998;2022-10-26T00:08:14;100807.34;;;12.45;100.00
3142;BME280;1581;51.568;6.998;2022-10-26T00:10:44;100798.50;;;12.44;100.00
3142;BME280;1581;51.568;6.998;2022-10-26T00:13:12;100793.56;;;12.41;100.00
3142;BME280;1581;51.568;6.998;2022-10-26T00:15:40;100786.38;;;12.48;100.00
3142;BME280;1581;51.568;6.998;2022-10-26T00:18:08;100787.66;;;12.52;100.00
3142;BME280;1581;51.568;6.998;2022-10-26T00:20:36;100786.22;;;12.56;100.00
3142;BME280;1581;51.568;6.998;2022-10-26T00:23:03;100781.28;;;12.60;100.00
3142;BME280;1581;51.568;6.998;2022-10-26T00:25:31;100789.50;;;12.58;100.00
3142;BME280;1581;51.568;6.998;2022-10-26T00:28:00;100788.25;;;12.54;100.00
3142;BME280;1581;51.568;6.998;2022-10-26T00:30:27;100784.56;;;12.55;100.00
3142;BME280;1581;51.568;6.998;2022-10-26T00:32:55;100776.34;;;12.57;100.00
3142;BME280;1581;51.568;6.998;2022-10-26T00:35:22;100779.03;;;12.57;100.00
3142;BME280;1581;51.568;6.998;2022-10-26T00:37:54;100780.25;;;12.61;100.00
3142;BME280;1581;51.568;6.998;2022-10-26T00:40:21;100783.78;;;12.61;100.00
3142;BME280;1581;51.568;6.998;2022-10-26T00:42:53;100776.78;;;12.60;100.00
3142;BME280;1581;51.568;6.998;2022-10-26T00:45:24;100779.63;;;12.59;100.00
3142;BME280;1581;51.568;6.998;2022-10-26T00:47:55;100776.97;;;12.65;100.00
3142;BME280;1581;51.568;6.998;2022-10-26T00:50:30;100782.75;;;12.69;100.00
3142;BME280;1581;51.568;6.998;2022-10-26T00:53:00;100779.25;;;12.68;100.00
3142;BME280;1581;51.568;6.998;2022-10-26T00:55:32;100769.38;;;12.69;100.00
3142;BME280;1581;51.568;6.998;2022-10-26T00:58:03;100777.63;;;12.67;100.00
3142;BME280;1581;51.568;6.998;2022-10-26T01:00:33;100783.38;;;12.71;100.00
3142;BME280;1581;51.568;6.998;2022-10-26T01:03:04;100785.88;;;12.72;100.00
3142;BME280;1581;51.568;6.998;2022-10-26T01:05:35;100783.81;;;12.81;100.00
3142;BME280;1581;51.568;6.998;2022-10-26T01:08:04;100780.53;;;12.85;100.00
3142;BME280;1581;51.568;6.998;2022-10-26T01:10:35;100771.13;;;12.89;100.00
3142;BME280;1581;51.568;6.998;2022-10-26T01:13:02;100764.94;;;12.88;100.00
3142;BME280;1581;51.568;6.998;2022-10-26T01:15:41;100770.28;;;12.82;100.00
3142;BME280;1581;51.568;6.998;2022-10-26T01:18:19;100772.13;;;12.88;100.00
3142;BME280;1581;51.568;6.998;2022-10-26T01:24:34;100764.56;;;12.98;100.00
3142;BME280;1581;51.568;6.998;2022-10-26T01:27:22;100756.31;;;12.99;100.00
3142;BME280;1581;51.568;6.998;2022-10-26T01:30:25;100749.75;;;13.08;100.00
3142;BME280;1581;51.568;6.998;2022-10-26T01:33:12;100752.44;;;13.15;100.00
3142;BME280;1581;51.568;6.998;2022-10-26T01:35:56;100751.41;;;13.16;100.00
3142;BME280;1581;51.568;6.998;2022-10-26T01:38:33;100752.25;;;13.16;100.00
3142;BME280;1581;51.568;6.998;2022-10-26T01:41:12;100747.28;;;13.13;100.00
3142;BME280;1581;51.568;6.998;2022-10-26T01:43:48;100738.88;;;13.16;100.00
3142;BME280;1581;51.568;6.998;2022-10-26T01:46:19;100730.63;;;13.24;100.00
3142;BME280;1581;51.568;6.998;2022-10-26T01:48:50;100734.53;;;13.28;100.00
3142;BME280;1581;51.568;6.998;2022-10-26T01:51:20;100738.25;;;13.21;100.00
3142;BME280;1581;51.568;6.998;2022-10-26T01:53:48;100725.06;;;13.19;100.00
3142;BME280;1581;51.568;6.998;2022-10-26T01:56:19;100733.72;;;13.21;100.00
3142;BME280;1581;51.568;6.998;2022-10-26T02:05:20;100725.28;;;13.18;100.00
3142;BME280;1581;51.568;6.998;2022-10-26T02:07:57;100713.56;;;13.32;100.00
3142;BME280;1581;51.568;6.998;2022-10-26T02:10:36;100716.00;;;13.27;100.00
3142;BME280;1581;51.568;6.998;2022-10-26T02:13:15;100717.66;;;13.21;100.00
3142;BME280;1581;51.568;6.998;2022-10-26T02:15:52;100713.31;;;13.20;100.00
3142;BME280;1581;51.568;6.998;2022-10-26T02:18:30;100710.25;;;13.23;100.00
3142;BME280;1581;51.568;6.998;2022-10-26T02:21:05;100711.06;;;13.24;100.00
3142;BME280;1581;51.568;6.998;2022-10-26T02:23:36;100700.97;;;13.26;100.00
3142;BME280;1581;51.568;6.998;2022-10-26T02:26:09;100701.81;;;13.26;100.00
3142;BME280;1581;51.568;6.998;2022-10-26T02:28:42;100708.19;;;13.32;100.00
3142;BME280;1581;51.568;6.998;2022-10-26T02:31:13;100699.53;;;13.36;100.00
3142;BME280;1581;51.568;6.998;2022-10-26T02:33:47;100704.28;;;13.41;100.00
3142;BME280;1581;51.568;6.998;2022-10-26T02:36:20;100701.59;;;13.41;100.00
3142;BME280;1581;51.568;6.998;2022-10-26T02:38:49;100693.34;;;13.36;100.00
3142;BME280;1581;51.568;6.998;2022-10-26T02:41:18;100689.88;;;13.29;100.00
3142;BME280;1581;51.568;6.998;2022-10-26T02:43:52;100692.13;;;13.32;100.00
3142;BME280;1581;51.568;6.998;2022-10-26T02:46:22;100683.88;;;13.33;100.00
3142;BME280;1581;51.568;6.998;2022-10-26T02:48:54;100691.50;;;13.36;100.00
3142;BME280;1581;51.568;6.998;2022-10-26T02:51:30;100690.50;;;13.31;100.00
3142;BME280;1581;51.568;6.998;2022-10-26T02:54:07;100692.31;;;13.30;100.00
3142;BME280;1581;51.568;6.998;2022-10-26T02:56:42;100685.72;;;13.33;100.00
3142;BME280;1581;51.568;6.998;2022-10-26T02:59:12;100693.97;;;13.38;100.00
3142;BME280;1581;51.568;6.998;2022-10-26T03:01:41;100689.66;;;13.30;100.00
3142;BME280;1581;51.568;6.998;2022-10-26T03:04:12;100687.59;;;13.39;100.00
3142;BME280;1581;51.568;6.998;2022-10-26T03:06:39;100683.66;;;13.35;100.00
3142;BME280;1581;51.568;6.998;2022-10-26T03:09:07;100680.38;;;13.33;100.00
3142;BME280;1581;51.568;6.998;2022-10-26T03:11:34;100681.22;;;13.46;100.00
3142;BME280;1581;51.568;6.998;2022-10-26T03:14:02;100682.63;;;13.42;100.00
3142;BME280;1581;51.568;6.998;2022-10-26T03:16:29;100673.19;;;13.46;100.00
3142;BME280;1581;51.568;6.998;2022-10-26T03:18:57;100664.31;;;13.46;100.00
3142;BME280;1581;51.568;6.998;2022-10-26T03:21:26;100677.91;;;13.51;100.00
3142;BME280;1581;51.568;6.998;2022-10-26T03:23:53;100669.25;;;13.49;100.00
3142;BME280;1581;51.568;6.998;2022-10-26T03:26:21;100675.22;;;13.57;100.00
3142;BME280;1581;51.568;6.998;2022-10-26T03:28:49;100663.28;;;13.53;100.00
3142;BME280;1581;51.568;6.998;2022-10-26T03:31:16;100671.31;;;13.47;100.00
3142;BME280;1581;51.568;6.998;2022-10-26T03:33:44;100676.84;;;13.58;100.00
3142;BME280;1581;51.568;6.998;2022-10-26T03:36:11;100670.91;;;13.50;100.00
3142;BME280;1581;51.568;6.998;2022-10-26T03:38:40;100673.13;;;13.59;100.00
3142;BME280;1581;51.568;6.998;2022-10-26T03:41:08;100666.34;;;13.57;100.00
3142;BME280;1581;51.568;6.998;2022-10-26T03:43:35;100668.00;;;13.58;100.00
3142;BME280;1581;51.568;6.998;2022-10-26T03:46:03;100664.06;;;13.67;100.00
3142;BME280;1581;51.568;6.998;2022-10-26T03:48:30;100660.75;;;13.65;100.00
3142;BME280;1581;51.568;6.998;2022-10-26T03:50:58;100664.91;;;13.67;100.00
3142;BME280;1581;51.568;6.998;2022-10-26T03:53:26;100660.59;;;13.60;100.00
3142;BME280;1581;51.568;6.998;2022-10-26T03:55:54;100664.91;;;13.61;100.00
3142;BME280;1581;51.568;6.998;2022-10-26T03:58:22;100665.72;;;13.61;100.00
3142;BME280;1581;51.568;6.998;2022-10-26T04:00:50;100665.09;;;13.59;100.00
3142;BME280;1581;51.568;6.998;2022-10-26T04:03:17;100664.91;;;13.61;100.00
3142;BME280;1581;51.568;6.998;2022-10-26T04:05:45;100665.50;;;13.63;100.00
3142;BME280;1581;51.568;6.998;2022-10-26T04:08:12;100657.47;;;13.63;100.00
3142;BME280;1581;51.568;6.998;2022-10-26T04:10:44;100665.94;;;13.60;100.00
3142;BME280;1581;51.568;6.998;2022-10-26T04:13:13;100673.53;;;13.63;100.00
3142;BME280;1581;51.568;6.998;2022-10-26T04:15:41;100664.91;;;13.54;100.00
3142;BME280;1581;51.568;6.998;2022-10-26T04:18:09;100669.03;;;13.57;100.00
3142;BME280;1581;51.568;6.998;2022-10-26T04:20:39;100662.03;;;13.56;100.00
3142;BME280;1581;51.568;6.998;2022-10-26T04:23:11;100662.41;;;13.59;100.00
3142;BME280;1581;51.568;6.998;2022-10-26T04:25:39;100664.69;;;13.62;100.00
3142;BME280;1581;51.568;6.998;2022-10-26T04:28:08;100659.34;;;13.62;100.00
3142;BME280;1581;51.568;6.998;2022-10-26T04:30:38;100660.75;;;13.65;100.00
3142;BME280;1581;51.568;6.998;2022-10-26T04:33:06;100656.44;;;13.64;100.00
3142;BME280;1581;51.568;6.998;2022-10-26T04:35:36;100660.13;;;13.63;100.00
3142;BME280;1581;51.568;6.998;2022-10-26T04:38:05;100668.16;;;13.63;100.00
3142;BME280;1581;51.568;6.998;2022-10-26T04:40:34;100671.47;;;13.58;100.00
3142;BME280;1581;51.568;6.998;2022-10-26T04:43:02;100657.06;;;13.53;100.00
3142;BME280;1581;51.568;6.998;2022-10-26T04:45:29;100666.16;;;13.52;100.00
3142;BME280;1581;51.568;6.998;2022-10-26T04:48:06;100664.53;;;13.51;100.00
3142;BME280;1581;51.568;6.998;2022-10-26T04:50:36;100664.72;;;13.49;100.00
3142;BME280;1581;51.568;6.998;2022-10-26T04:53:04;100663.28;;;13.47;100.00
3142;BME280;1581;51.568;6.998;2022-10-26T04:55:31;100658.75;;;13.47;100.00
3142;BME280;1581;51.568;6.998;2022-10-26T04:57:59;100662.03;;;13.43;100.00
3142;BME280;1581;51.568;6.998;2022-10-26T05:00:27;100659.97;;;13.45;100.00
3142;BME280;1581;51.568;6.998;2022-10-26T05:02:58;100665.72;;;13.48;100.00
3142;BME280;1581;51.568;6.998;2022-10-26T05:05:29;100659.16;;;13.44;100.00
3142;BME280;1581;51.568;6.998;2022-10-26T05:07:57;100657.94;;;13.47;100.00
3142;BME280;1581;51.568;6.998;2022-10-26T05:10:25;100661.41;;;13.54;100.00
3142;BME280;1581;51.568;6.998;2022-10-26T05:12:53;100654.00;;;13.56;100.00
3142;BME280;1581;51.568;6.998;2022-10-26T05:15:21;100668.00;;;13.58;100.00
3142;BME280;1581;51.568;6.998;2022-10-26T05:17:54;100663.44;;;13.58;100.00
3142;BME280;1581;51.568;6.998;2022-10-26T05:20:22;100657.91;;;13.60;100.00
3142;BME280;1581;51.568;6.998;2022-10-26T05:22:56;100662.63;;;13.64;100.00
3142;BME280;1581;51.568;6.998;2022-10-26T05:25:24;100663.66;;;13.70;100.00
3142;BME280;1581;51.568;6.998;2022-10-26T05:27:51;100654.97;;;13.74;100.00
3142;BME280;1581;51.568;6.998;2022-10-26T05:30:23;100648.38;;;13.76;100.00
3142;BME280;1581;51.568;6.998;2022-10-26T05:32:53;100656.19;;;13.78;100.00
3142;BME280;1581;51.568;6.998;2022-10-26T05:35:21;100653.31;;;13.73;100.00
3142;BME280;1581;51.568;6.998;2022-10-26T05:37:49;100658.06;;;13.77;100.00
3142;BME280;1581;51.568;6.998;2022-10-26T05:40:18;100664.84;;;13.73;100.00
3142;BME280;1581;51.568;6.998;2022-10-26T05:42:45;100660.72;;;13.84;100.00
3142;BME280;1581;51.568;6.998;2022-10-26T05:45:13;100663.59;;;13.82;100.00
3142;BME280;1581;51.568;6.998;2022-10-26T05:47:44;100662.78;;;13.82;100.00
3142;BME280;1581;51.568;6.998;2022-10-26T05:50:12;100659.31;;;13.75;100.00
3142;BME280;1581;51.568;6.998;2022-10-26T05:52:40;100649.16;;;13.83;100.00
3142;BME280;1581;51.568;6.998;2022-10-26T05:55:15;100645.44;;;13.84;100.00
3142;BME280;1581;51.568;6.998;2022-10-26T05:57:50;100645.84;;;13.88;100.00
3142;BME280;1581;51.568;6.998;2022-10-26T06:00:27;100656.38;;;13.83;100.00
3142;BME280;1581;51.568;6.998;2022-10-26T06:03:21;100657.81;;;13.85;100.00
3142;BME280;1581;51.568;6.998;2022-10-26T06:05:54;100657.00;;;13.85;100.00
3142;BME280;1581;51.568;6.998;2022-10-26T06:08:24;100655.34;;;13.84;100.00
3142;BME280;1581;51.568;6.998;2022-10-26T06:10:57;100658.84;;;13.84;100.00
3142;BME280;1581;51.568;6.998;2022-10-26T06:13:29;100661.28;;;13.92;100.00
3142;BME280;1581;51.568;6.998;2022-10-26T06:16:11;100660.88;;;13.95;100.00
3142;BME280;1581;51.568;6.998;2022-10-26T06:18:53;100656.13;;;13.97;100.00
3142;BME280;1581;51.568;6.998;2022-10-26T06:21:43;100661.72;;;13.96;100.00
3142;BME280;1581;51.568;6.998;2022-10-26T06:24:25;100662.50;;;13.96;100.00
3142;BME280;1581;51.568;6.998;2022-10-26T06:27:03;100660.69;;;13.97;100.00
3142;BME280;1581;51.568;6.998;2022-10-26T06:29:43;100660.88;;;13.89;100.00
3142;BME280;1581;51.568;6.998;2022-10-26T06:32:15;100658.44;;;13.81;100.00
3142;BME280;1581;51.568;6.998;2022-10-26T06:34:46;100657.38;;;13.95;100.00
3142;BME280;1581;51.568;6.998;2022-10-26T06:37:15;100659.41;;;13.99;100.00
3142;BME280;1581;51.568;6.998;2022-10-26T06:39:46;100659.41;;;13.99;100.00
3142;BME280;1581;51.568;6.998;2022-10-26T06:42:16;100663.13;;;13.98;100.00
3142;BME280;1581;51.568;6.998;2022-10-26T06:44:46;100665.81;;;13.98;100.00
3142;BME280;1581;51.568;6.998;2022-10-26T06:47:21;100668.25;;;14.06;100.00
3142;BME280;1581;51.568;6.998;2022-10-26T06:49:59;100676.69;;;14.10;100.00
3142;BME280;1581;51.568;6.998;2022-10-26T06:52:34;100671.75;;;14.07;100.00
3142;BME280;1581;51.568;6.998;2022-10-26T06:55:04;100670.94;;;14.13;100.00
3142;BME280;1581;51.568;6.998;2022-10-26T06:57:34;100676.28;;;14.06;100.00
3142;BME280;1581;51.568;6.998;2022-10-26T07:00:13;100672.16;;;14.10;100.00
3142;BME280;1581;51.568;6.998;2022-10-26T07:02:43;100674.16;;;14.28;100.00
3142;BME280;1581;51.568;6.998;2022-10-26T07:05:11;100683.84;;;14.29;100.00
3142;BME280;1581;51.568;6.998;2022-10-26T07:07:41;100674.56;;;14.31;100.00
3142;BME280;1581;51.568;6.998;2022-10-26T07:10:11;100679.69;;;14.33;100.00
3142;BME280;1581;51.568;6.998;2022-10-26T07:12:39;100680.88;;;14.43;100.00
3142;BME280;1581;51.568;6.998;2022-10-26T07:15:08;100676.94;;;14.52;100.00
3142;BME280;1581;51.568;6.998;2022-10-26T07:17:42;100678.13;;;14.56;100.00
3142;BME280;1581;51.568;6.998;2022-10-26T07:20:11;100685.50;;;14.61;100.00
3142;BME280;1581;51.568;6.998;2022-10-26T07:22:39;100675.19;;;14.64;100.00
3142;BME280;1581;51.568;6.998;2022-10-26T07:25:10;100680.94;;;14.67;100.00
3142;BME280;1581;51.568;6.998;2022-10-26T07:27:39;100682.91;;;14.78;100.00
3142;BME280;1581;51.568;6.998;2022-10-26T07:30:09;100682.69;;;14.86;100.00
3142;BME280;1581;51.568;6.998;2022-10-26T07:32:37;100691.88;;;14.97;100.00
3142;BME280;1581;51.568;6.998;2022-10-26T07:35:08;100700.09;;;15.02;100.00
3142;BME280;1581;51.568;6.998;2022-10-26T07:37:39;100694.31;;;14.98;100.00
3142;BME280;1581;51.568;6.998;2022-10-26T07:40:08;100695.88;;;15.12;100.00
3142;BME280;1581;51.568;6.998;2022-10-26T07:42:35;100700.38;;;15.18;100.00
3142;BME280;1581;51.568;6.998;2022-10-26T07:45:04;100700.16;;;15.20;100.00
3142;BME280;1581;51.568;6.998;2022-10-26T07:47:33;100698.91;;;15.22;100.00
3142;BME280;1581;51.568;6.998;2022-10-26T07:50:01;100707.19;;;15.21;100.00
3142;BME280;1581;51.568;6.998;2022-10-26T07:52:30;100711.09;;;15.25;100.00
3142;BME280;1581;51.568;6.998;2022-10-26T07:54:59;100699.47;;;15.31;100.00
3142;BME280;1581;51.568;6.998;2022-10-26T07:57:27;100707.25;;;15.39;100.00
3142;BME280;1581;51.568;6.998;2022-10-26T07:59:54;100712.94;;;15.49;100.00
3142;BME280;1581;51.568;6.998;2022-10-26T08:02:23;100707.91;;;15.58;100.00
3142;BME280;1581;51.568;6.998;2022-10-26T08:04:52;100711.56;;;15.64;100.00
3142;BME280;1581;51.568;6.998;2022-10-26T08:07:20;100714.31;;;15.75;100.00
3142;BME280;1581;51.568;6.998;2022-10-26T08:09:47;100712.69;;;15.92;100.00
3142;BME280;1581;51.568;6.998;2022-10-26T08:12:15;100712.09;;;16.08;100.00
3142;BME280;1581;51.568;6.998;2022-10-26T08:14:42;100709.63;;;16.25;100.00
3142;BME280;1581;51.568;6.998;2022-10-26T08:17:10;100705.38;;;16.35;100.00
3142;BME280;1581;51.568;6.998;2022-10-26T08:19:38;100710.44;;;16.43;100.00
3142;BME280;1581;51.568;6.998;2022-10-26T08:22:07;100703.78;;;16.28;100.00
3142;BME280;1581;51.568;6.998;2022-10-26T08:24:35;100711.19;;;16.50;100.00
3142;BME280;1581;51.568;6.998;2022-10-26T08:27:02;100711.78;;;16.52;100.00
3142;BME280;1581;51.568;6.998;2022-10-26T08:29:30;100725.28;;;16.63;100.00
3142;BME280;1581;51.568;6.998;2022-10-26T08:31:57;100726.78;;;16.59;100.00
3142;BME280;1581;51.568;6.998;2022-10-26T08:34:25;100721.19;;;16.61;100.00
3142;BME280;1581;51.568;6.998;2022-10-26T08:36:52;100717.53;;;16.55;100.00
3142;BME280;1581;51.568;6.998;2022-10-26T08:39:21;100717.81;;;16.65;100.00
3142;BME280;1581;51.568;6.998;2022-10-26T08:41:56;100730.00;;;16.68;100.00
3142;BME280;1581;51.568;6.998;2022-10-26T08:44:29;100731.38;;;16.70;100.00
3142;BME280;1581;51.568;6.998;2022-10-26T08:47:05;100727.91;;;16.70;100.00
3142;BME280;1581;51.568;6.998;2022-10-26T08:49:42;100732.44;;;16.69;100.00
3142;BME280;1581;51.568;6.998;2022-10-26T08:52:16;100740.56;;;16.81;100.00
3142;BME280;1581;51.568;6.998;2022-10-26T08:54:50;100738.34;;;16.89;100.00
3142;BME280;1581;51.568;6.998;2022-10-26T08:57:24;100749.06;;;17.07;100.00
3142;BME280;1581;51.568;6.998;2022-10-26T09:00:02;100745.44;;;17.02;100.00
3142;BME280;1581;51.568;6.998;2022-10-26T09:02:31;100761.53;;;17.20;100.00
3142;BME280;1581;51.568;6.998;2022-10-26T09:04:59;100756.84;;;17.26;100.00
3142;BME280;1581;51.568;6.998;2022-10-26T09:07:40;100760.63;;;17.37;100.00
3142;BME280;1581;51.568;6.998;2022-10-26T09:10:29;100776.13;;;17.41;100.00
3142;BME280;1581;51.568;6.998;2022-10-26T09:13:04;100779.28;;;17.50;100.00
3142;BME280;1581;51.568;6.998;2022-10-26T09:15:47;100792.75;;;17.50;100.00
3142;BME280;1581;51.568;6.998;2022-10-26T09:18:32;100792.19;;;17.59;100.00
3142;BME280;1581;51.568;6.998;2022-10-26T09:21:19;100796.88;;;17.64;100.00
3142;BME280;1581;51.568;6.998;2022-10-26T09:24:00;100807.22;;;17.78;100.00
3142;BME280;1581;51.568;6.998;2022-10-26T09:26:34;100799.72;;;17.80;100.00
3142;BME280;1581;51.568;6.998;2022-10-26T09:29:08;100800.41;;;17.87;100.00
3142;BME280;1581;51.568;6.998;2022-10-26T09:31:40;100804.88;;;17.93;100.00
3142;BME280;1581;51.568;6.998;2022-10-26T09:34:19;100814.72;;;17.88;100.00
3142;BME280;1581;51.568;6.998;2022-10-26T09:36:53;100816.69;;;17.92;100.00
3142;BME280;1581;51.568;6.998;2022-10-26T09:39:32;100816.94;;;17.91;100.00
3142;BME280;1581;51.568;6.998;2022-10-26T09:42:13;100829.97;;;18.05;100.00
3142;BME280;1581;51.568;6.998;2022-10-26T09:44:48;100822.22;;;18.20;100.00
3142;BME280;1581;51.568;6.998;2022-10-26T09:47:30;100831.84;;;18.39;100.00
3142;BME280;1581;51.568;6.998;2022-10-26T09:50:16;100826.06;;;18.58;100.00
3142;BME280;1581;51.568;6.998;2022-10-26T09:52:45;100824.31;;;18.52;100.00
3142;BME280;1581;51.568;6.998;2022-10-26T09:55:13;100832.66;;;18.51;100.00
3142;BME280;1581;51.568;6.998;2022-10-26T09:57:45;100831.22;;;18.60;100.00
3142;BME280;1581;51.568;6.998;2022-10-26T10:00:16;100841.09;;;18.54;100.00
3142;BME280;1581;51.568;6.998;2022-10-26T10:02:47;100839.34;;;18.48;100.00
3142;BME280;1581;51.568;6.998;2022-10-26T10:05:31;100845.78;;;18.59;100.00
3142;BME280;1581;51.568;6.998;2022-10-26T10:08:16;100853.16;;;18.63;100.00
3142;BME280;1581;51.568;6.998;2022-10-26T10:11:00;100859.75;;;18.56;100.00
3142;BME280;1581;51.568;6.998;2022-10-26T10:13:33;100857.25;;;18.66;100.00
3142;BME280;1581;51.568;6.998;2022-10-26T10:16:11;100859.38;;;18.64;100.00
3142;BME280;1581;51.568;6.998;2022-10-26T10:18:41;100869.50;;;18.57;100.00
3142;BME280;1581;51.568;6.998;2022-10-26T10:21:09;100865.38;;;18.66;100.00
3142;BME280;1581;51.568;6.998;2022-10-26T10:23:47;100866.09;;;18.50;100.00
3142;BME280;1581;51.568;6.998;2022-10-26T10:26:17;100872.75;;;18.70;100.00
3142;BME280;1581;51.568;6.998;2022-10-26T10:28:56;100860.66;;;18.73;100.00
3142;BME280;1581;51.568;6.998;2022-10-26T10:31:28;100869.06;;;18.88;100.00
3142;BME280;1581;51.568;6.998;2022-10-26T10:33:56;100866.91;;;19.01;100.00
3142;BME280;1581;51.568;6.998;2022-10-26T10:36:26;100881.78;;;19.26;100.00
3142;BME280;1581;51.568;6.998;2022-10-26T10:38:56;100874.00;;;19.30;100.00
3142;BME280;1581;51.568;6.998;2022-10-26T10:41:27;100875.03;;;19.40;100.00
3142;BME280;1581;51.568;6.998;2022-10-26T10:44:04;100872.59;;;19.27;100.00
3142;BME280;1581;51.568;6.998;2022-10-26T10:46:36;100883.41;;;19.27;100.00
3142;BME280;1581;51.568;6.998;2022-10-26T10:49:06;100875.31;;;19.27;100.00
3142;BME280;1581;51.568;6.998;2022-10-26T10:51:43;100885.97;;;19.34;100.00
3142;BME280;1581;51.568;6.998;2022-10-26T10:54:21;100887.81;;;19.45;100.00
3142;BME280;1581;51.568;6.998;2022-10-26T10:56:51;100896.91;;;19.55;100.00
3142;BME280;1581;51.568;6.998;2022-10-26T11:05:54;100907.66;;;19.67;100.00
3142;BME280;1581;51.568;6.998;2022-10-26T11:08:29;100909.31;;;19.84;100.00
3142;BME280;1581;51.568;6.998;2022-10-26T11:11:03;100912.59;;;19.86;100.00
3142;BME280;1581;51.568;6.998;2022-10-26T11:13:37;100915.69;;;19.62;100.00
3142;BME280;1581;51.568;6.998;2022-10-26T11:16:14;100917.25;;;19.74;100.00
3142;BME280;1581;51.568;6.998;2022-10-26T11:18:47;100913.78;;;19.90;100.00
3142;BME280;1581;51.568;6.998;2022-10-26T11:21:24;100914.53;;;20.02;100.00
3142;BME280;1581;51.568;6.998;2022-10-26T11:24:05;100915.75;;;19.94;100.00
3142;BME280;1581;51.568;6.998;2022-10-26T11:26:44;100916.59;;;20.11;100.00
3142;BME280;1581;51.568;6.998;2022-10-26T11:29:23;100922.06;;;20.16;100.00
3142;BME280;1581;51.568;6.998;2022-10-26T11:32:00;100917.56;;;20.22;100.00
3142;BME280;1581;51.568;6.998;2022-10-26T11:34:36;100910.69;;;20.14;100.00
3142;BME280;1581;51.568;6.998;2022-10-26T11:37:12;100930.44;;;20.15;100.00
3142;BME280;1581;51.568;6.998;2022-10-26T11:39:45;100927.47;;;20.33;100.00
3142;BME280;1581;51.568;6.998;2022-10-26T11:42:23;100923.47;;;20.35;100.00
3142;BME280;1581;51.568;6.998;2022-10-26T11:44:58;100919.50;;;20.43;100.00
3142;BME280;1581;51.568;6.998;2022-10-26T11:47:33;100924.53;;;20.34;100.00
3142;BME280;1581;51.568;6.998;2022-10-26T11:50:14;100933.06;;;20.43;100.00
3142;BME280;1581;51.568;6.998;2022-10-26T11:52:49;100933.78;;;20.38;100.00
3142;BME280;1581;51.568;6.998;2022-10-26T11:55:19;100933.88;;;20.27;100.00
3142;BME280;1581;51.568;6.998;2022-10-26T11:57:49;100929.38;;;20.32;100.00
3142;BME280;1581;51.568;6.998;2022-10-26T12:00:21;100937.16;;;20.45;100.00
3142;BME280;1581;51.568;6.998;2022-10-26T12:02:55;100945.19;;;20.57;100.00
3142;BME280;1581;51.568;6.998;2022-10-26T12:05:32;100933.47;;;20.51;100.00
3142;BME280;1581;51.568;6.998;2022-10-26T12:08:05;100935.28;;;20.46;100.00
3142;BME280;1581;51.568;6.998;2022-10-26T12:10:38;100940.63;;;20.41;100.00
3142;BME280;1581;51.568;6.998;2022-10-26T12:13:18;100926.41;;;20.50;100.00
3142;BME280;1581;51.568;6.998;2022-10-26T12:15:53;100924.38;;;20.41;100.00
3142;BME280;1581;51.568;6.998;2022-10-26T12:18:32;100931.59;;;20.35;100.00
3142;BME280;1581;51.568;6.998;2022-10-26T12:21:06;100947.16;;;20.45;100.00
3142;BME280;1581;51.568;6.998;2022-10-26T12:23:38;100942.31;;;20.47;100.00
3142;BME280;1581;51.568;6.998;2022-10-26T12:26:39;100939.69;;;20.52;100.00
3142;BME280;1581;51.568;6.998;2022-10-26T12:29:31;100943.38;;;20.62;100.00
3142;BME280;1581;51.568;6.998;2022-10-26T12:32:03;100951.66;;;20.72;100.00
3142;BME280;1581;51.568;6.998;2022-10-26T12:34:59;100954.53;;;20.66;100.00
3142;BME280;1581;51.568;6.998;2022-10-26T12:37:34;100957.72;;;20.79;100.00
3142;BME280;1581;51.568;6.998;2022-10-26T12:40:38;100965.09;;;20.83;100.00
3142;BME280;1581;51.568;6.998;2022-10-26T12:43:32;100971.75;;;20.76;100.00
3142;BME280;1581;51.568;6.998;2022-10-26T12:46:36;100970.53;;;20.83;100.00
3142;BME280;1581;51.568;6.998;2022-10-26T12:52:47;100972.56;;;20.77;100.00
3142;BME280;1581;51.568;6.998;2022-10-26T12:56:02;100986.84;;;20.72;100.00
3142;BME280;1581;51.568;6.998;2022-10-26T12:58:58;100989.44;;;21.00;100.00
3142;BME280;1581;51.568;6.998;2022-10-26T13:08:23;100997.41;;;21.06;100.00
3142;BME280;1581;51.568;6.998;2022-10-26T13:11:02;100999.69;;;21.14;100.00
3142;BME280;1581;51.568;6.998;2022-10-26T13:13:42;100998.25;;;21.28;100.00
3142;BME280;1581;51.568;6.998;2022-10-26T13:16:28;100996.66;;;21.32;100.00
3142;BME280;1581;51.568;6.998;2022-10-26T13:19:00;101007.75;;;21.52;100.00
3142;BME280;1581;51.568;6.998;2022-10-26T13:21:39;101003.63;;;21.45;100.00
3142;BME280;1581;51.568;6.998;2022-10-26T13:24:33;101004.50;;;21.71;100.00
3142;BME280;1581;51.568;6.998;2022-10-26T13:27:41;100999.84;;;21.46;100.00
3142;BME280;1581;51.568;6.998;2022-10-26T13:31:27;101012.91;;;21.32;100.00
3142;BME280;1581;51.568;6.998;2022-10-26T13:35:01;101004.78;;;21.32;100.00
3142;BME280;1581;51.568;6.998;2022-10-26T13:37:35;101006.38;;;21.50;100.00
3142;BME280;1581;51.568;6.998;2022-10-26T13:40:13;100999.97;;;21.56;100.00
3142;BME280;1581;51.568;6.998;2022-10-26T13:43:01;101003.41;;;21.51;100.00
3142;BME280;1581;51.568;6.998;2022-10-26T13:45:46;100997.72;;;21.95;100.00
3142;BME280;1581;51.568;6.998;2022-10-26T13:48:38;101012.78;;;21.86;100.00
3142;BME280;1581;51.568;6.998;2022-10-26T13:51:19;101002.81;;;21.92;100.00
3142;BME280;1581;51.568;6.998;2022-10-26T13:54:55;101008.28;;;22.23;100.00
3142;BME280;1581;51.568;6.998;2022-10-26T13:57:42;101001.00;;;22.29;100.00
3142;BME280;1581;51.568;6.998;2022-10-26T14:00:18;101001.94;;;22.39;100.00
3142;BME280;1581;51.568;6.998;2022-10-26T14:02:46;101008.59;;;22.27;100.00